sensor_id;sensor_type;location;lat;lon;timestamp;P1;durP1;ratioP1;P2;durP2;ratioP2
36817;SDS011;22761;51.542;16.450;2022-11-14T00:00:46;78.27;;;39.97;;
36817;SDS011;22761;51.542;16.450;2022-11-14T00:03:32;78.60;;;43.10;;
36817;SDS011;22761;51.542;16.450;2022-11-14T00:06:17;77.07;;;40.70;;
36817;SDS011;22761;51.542;16.450;2022-11-14T00:09:03;61.53;;;36.53;;
36817;SDS011;22761;51.542;16.450;2022-11-14T00:11:49;55.67;;;33.23;;
36817;SDS011;22761;51.542;16.450;2022-11-14T00:14:34;62.13;;;35.30;;
36817;SDS011;22761;51.542;16.450;2022-11-14T00:17:20;56.33;;;32.87;;
36817;SDS011;22761;51.542;16.450;2022-11-14T00:20:06;56.20;;;33.40;;
36817;SDS011;22761;51.542;16.450;2022-11-14T00:22:54;54.20;;;32.30;;
36817;SDS011;22761;51.542;16.450;2022-11-14T00:25:42;52.60;;;32.03;;
36817;SDS011;22761;51.542;16.450;2022-11-14T00:28:29;57.47;;;32.43;;
36817;SDS011;22761;51.542;16.450;2022-11-14T00:31:14;49.53;;;29.43;;
36817;SDS011;22761;51.542;16.450;2022-11-14T00:33:59;53.33;;;32.20;;
36817;SDS011;22761;51.542;16.450;2022-11-14T00:36:45;56.43;;;33.57;;
36817;SDS011;22761;51.542;16.450;2022-11-14T00:39:30;55.43;;;31.80;;
36817;SDS011;22761;51.542;16.450;2022-11-14T00:42:16;46.67;;;29.03;;
36817;SDS011;22761;51.542;16.450;2022-11-14T00:45:01;47.33;;;29.77;;
36817;SDS011;22761;51.542;16.450;2022-11-14T00:47:48;38.70;;;25.90;;
36817;SDS011;22761;51.542;16.450;2022-11-14T00:50:34;41.37;;;25.93;;
36817;SDS011;22761;51.542;16.450;2022-11-14T00:53:21;43.70;;;25.73;;
36817;SDS011;22761;51.542;16.450;2022-11-14T00:56:06;41.07;;;25.07;;
36817;SDS011;22761;51.542;16.450;2022-11-14T00:58:52;44.37;;;27.13;;
36817;SDS011;22761;51.542;16.450;2022-11-14T01:01:37;43.70;;;25.47;;
36817;SDS011;22761;51.542;16.450;2022-11-14T01:04:22;50.37;;;29.47;;
36817;SDS011;22761;51.542;16.450;2022-11-14T01:07:08;44.93;;;27.87;;
36817;SDS011;22761;51.542;16.450;2022-11-14T01:09:54;46.60;;;26.80;;
36817;SDS011;22761;51.542;16.450;2022-11-14T01:12:39;44.57;;;25.30;;
36817;SDS011;22761;51.542;16.450;2022-11-14T01:15:24;47.53;;;26.83;;
36817;SDS011;22761;51.542;16.450;2022-11-14T01:18:11;48.73;;;28.17;;
36817;SDS011;22761;51.542;16.450;2022-11-14T01:21:06;49.83;;;30.23;;
36817;SDS011;22761;51.542;16.450;2022-11-14T01:23:54;45.17;;;27.23;;
36817;SDS011;22761;51.542;16.450;2022-11-14T01:26:40;50.70;;;27.33;;
36817;SDS011;22761;51.542;16.450;2022-11-14T01:29:26;44.83;;;27.37;;
36817;SDS011;22761;51.542;16.450;2022-11-14T01:32:14;45.30;;;27.17;;
36817;SDS011;22761;51.542;16.450;2022-11-14T01:35:00;45.33;;;27.07;;
36817;SDS011;22761;51.542;16.450;2022-11-14T01:37:45;46.87;;;28.40;;
36817;SDS011;22761;51.542;16.450;2022-11-14T01:40:32;50.63;;;30.07;;
36817;SDS011;22761;51.542;16.450;2022-11-14T01:43:24;47.85;;;29.65;;
36817;SDS011;22761;51.542;16.450;2022-11-14T01:52:12;44.80;;;25.93;;
36817;SDS011;22761;51.542;16.450;2022-11-14T01:55:02;38.27;;;25.03;;
36817;SDS011;22761;51.542;16.450;2022-11-14T01:57:51;44.63;;;25.40;;
36817;SDS011;22761;51.542;16.450;2022-11-14T02:00:36;40.63;;;25.37;;
36817;SDS011;22761;51.542;16.450;2022-11-14T02:03:23;46.60;;;28.97;;
36817;SDS011;22761;51.542;16.450;2022-11-14T02:06:12;55.10;;;30.47;;
36817;SDS011;22761;51.542;16.450;2022-11-14T02:09:03;46.27;;;28.13;;
36817;SDS011;22761;51.542;16.450;2022-11-14T02:11:51;50.37;;;29.50;;
36817;SDS011;22761;51.542;16.450;2022-11-14T02:14:38;47.57;;;29.63;;
36817;SDS011;22761;51.542;16.450;2022-11-14T02:17:26;49.07;;;28.97;;
36817;SDS011;22761;51.542;16.450;2022-11-14T02:23:05;49.50;;;28.97;;
36817;SDS011;22761;51.542;16.450;2022-11-14T02:25:50;46.97;;;29.87;;
36817;SDS011;22761;51.542;16.450;2022-11-14T02:28:36;48.30;;;29.27;;
36817;SDS011;22761;51.542;16.450;2022-11-14T02:31:21;43.07;;;26.90;;
36817;SDS011;22761;51.542;16.450;2022-11-14T02:34:07;45.33;;;27.80;;
36817;SDS011;22761;51.542;16.450;2022-11-14T02:36:52;41.90;;;26.80;;
36817;SDS011;22761;51.542;16.450;2022-11-14T02:39:37;43.60;;;25.50;;
36817;SDS011;22761;51.542;16.450;2022-11-14T02:42:23;39.00;;;24.90;;
36817;SDS011;22761;51.542;16.450;2022-11-14T02:45:09;40.27;;;26.10;;
36817;SDS011;22761;51.542;16.450;2022-11-14T02:47:55;40.17;;;26.37;;
36817;SDS011;22761;51.542;16.450;2022-11-14T02:50:41;40.70;;;25.93;;
36817;SDS011;22761;51.542;16.450;2022-11-14T02:53:26;44.50;;;26.13;;
36817;SDS011;22761;51.542;16.450;2022-11-14T02:56:11;40.90;;;25.07;;
36817;SDS011;22761;51.542;16.450;2022-11-14T02:58:57;36.63;;;25.10;;
36817;SDS011;22761;51.542;16.450;2022-11-14T03:01:42;41.00;;;25.53;;
36817;SDS011;22761;51.542;16.450;2022-11-14T03:04:28;37.23;;;25.37;;
36817;SDS011;22761;51.542;16.450;2022-11-14T03:07:13;41.10;;;24.83;;
36817;SDS011;22761;51.542;16.450;2022-11-14T03:09:59;44.33;;;27.10;;
36817;SDS011;22761;51.542;16.450;2022-11-14T03:12:44;43.70;;;26.00;;
36817;SDS011;22761;51.542;16.450;2022-11-14T03:15:29;44.23;;;26.50;;
36817;SDS011;22761;51.542;16.450;2022-11-14T03:18:14;45.53;;;27.27;;
36817;SDS011;22761;51.542;16.450;2022-11-14T03:21:07;44.57;;;29.17;;
36817;SDS011;22761;51.542;16.450;2022-11-14T03:23:54;46.20;;;27.50;;
36817;SDS011;22761;51.542;16.450;2022-11-14T03:26:40;47.07;;;29.30;;
36817;SDS011;22761;51.542;16.450;2022-11-14T03:29:26;49.03;;;30.83;;
36817;SDS011;22761;51.542;16.450;2022-11-14T03:32:11;44.97;;;28.97;;
36817;SDS011;22761;51.542;16.450;2022-11-14T03:34:56;44.60;;;27.83;;
36817;SDS011;22761;51.542;16.450;2022-11-14T03:37:42;45.07;;;28.13;;
36817;SDS011;22761;51.542;16.450;2022-11-14T03:40:27;46.83;;;28.50;;
36817;SDS011;22761;51.542;16.450;2022-11-14T03:43:12;49.13;;;29.23;;
36817;SDS011;22761;51.542;16.450;2022-11-14T03:45:58;44.13;;;28.30;;
36817;SDS011;22761;51.542;16.450;2022-11-14T03:48:45;42.10;;;27.47;;
36817;SDS011;22761;51.542;16.450;2022-11-14T03:51:31;43.63;;;27.87;;
36817;SDS011;22761;51.542;16.450;2022-11-14T03:54:16;42.80;;;26.77;;
36817;SDS011;22761;51.542;16.450;2022-11-14T03:57:02;45.83;;;27.43;;
36817;SDS011;22761;51.542;16.450;2022-11-14T03:59:48;45.40;;;27.73;;
36817;SDS011;22761;51.542;16.450;2022-11-14T04:02:33;43.90;;;28.73;;
36817;SDS011;22761;51.542;16.450;2022-11-14T04:05:19;43.07;;;26.47;;
36817;SDS011;22761;51.542;16.450;2022-11-14T04:08:04;46.93;;;27.93;;
36817;SDS011;22761;51.542;16.450;2022-11-14T04:10:50;45.10;;;27.13;;
36817;SDS011;22761;51.542;16.450;2022-11-14T04:13:36;46.33;;;27.20;;
36817;SDS011;22761;51.542;16.450;2022-11-14T04:16:21;41.63;;;26.10;;
36817;SDS011;22761;51.542;16.450;2022-11-14T04:19:07;42.37;;;26.30;;
36817;SDS011;22761;51.542;16.450;2022-11-14T04:21:52;41.33;;;25.90;;
36817;SDS011;22761;51.542;16.450;2022-11-14T04:24:38;45.60;;;27.90;;
36817;SDS011;22761;51.542;16.450;2022-11-14T04:27:23;44.97;;;26.73;;
36817;SDS011;22761;51.542;16.450;2022-11-14T04:30:09;48.93;;;28.47;;
36817;SDS011;22761;51.542;16.450;2022-11-14T04:32:55;47.87;;;28.93;;
36817;SDS011;22761;51.542;16.450;2022-11-14T04:35:40;46.13;;;27.73;;
36817;SDS011;22761;51.542;16.450;2022-11-14T04:38:25;41.20;;;26.60;;
36817;SDS011;22761;51.542;16.450;2022-11-14T04:41:11;44.20;;;28.03;;
36817;SDS011;22761;51.542;16.450;2022-11-14T04:43:56;46.03;;;27.97;;
36817;SDS011;22761;51.542;16.450;2022-11-14T04:46:41;45.20;;;28.70;;
36817;SDS011;22761;51.542;16.450;2022-11-14T04:49:27;41.60;;;25.77;;
36817;SDS011;22761;51.542;16.450;2022-11-14T04:52:12;44.00;;;28.03;;
36817;SDS011;22761;51.542;16.450;2022-11-14T04:54:57;45.93;;;27.00;;
36817;SDS011;22761;51.542;16.450;2022-11-14T04:57:43;41.43;;;27.17;;
36817;SDS011;22761;51.542;16.450;2022-11-14T05:00:29;40.03;;;25.50;;
36817;SDS011;22761;51.542;16.450;2022-11-14T05:03:14;43.10;;;26.33;;
36817;SDS011;22761;51.542;16.450;2022-11-14T05:06:00;47.73;;;28.87;;
36817;SDS011;22761;51.542;16.450;2022-11-14T05:08:46;42.43;;;26.93;;
36817;SDS011;22761;51.542;16.450;2022-11-14T05:11:32;45.07;;;27.47;;
36817;SDS011;22761;51.542;16.450;2022-11-14T05:14:17;43.30;;;26.30;;
36817;SDS011;22761;51.542;16.450;2022-11-14T05:17:03;41.70;;;25.83;;
36817;SDS011;22761;51.542;16.450;2022-11-14T05:19:48;42.13;;;26.57;;
36817;SDS011;22761;51.542;16.450;2022-11-14T05:22:33;41.10;;;26.30;;
36817;SDS011;22761;51.542;16.450;2022-11-14T05:25:19;41.37;;;26.30;;
36817;SDS011;22761;51.542;16.450;2022-11-14T05:28:05;40.50;;;25.50;;
36817;SDS011;22761;51.542;16.450;2022-11-14T05:30:51;39.50;;;25.37;;
36817;SDS011;22761;51.542;16.450;2022-11-14T05:33:36;42.77;;;27.03;;
36817;SDS011;22761;51.542;16.450;2022-11-14T05:36:21;43.57;;;25.40;;
36817;SDS011;22761;51.542;16.450;2022-11-14T05:39:06;40.90;;;26.10;;
36817;SDS011;22761;51.542;16.450;2022-11-14T05:41:52;43.23;;;25.83;;
36817;SDS011;22761;51.542;16.450;2022-11-14T05:44:37;42.17;;;26.00;;
36817;SDS011;22761;51.542;16.450;2022-11-14T05:47:22;42.67;;;25.97;;
36817;SDS011;22761;51.542;16.450;2022-11-14T05:50:08;42.57;;;26.07;;
36817;SDS011;22761;51.542;16.450;2022-11-14T05:52:55;43.53;;;26.10;;
36817;SDS011;22761;51.542;16.450;2022-11-14T05:55:40;38.27;;;24.60;;
36817;SDS011;22761;51.542;16.450;2022-11-14T05:58:26;41.13;;;25.50;;
36817;SDS011;22761;51.542;16.450;2022-11-14T06:01:14;42.67;;;25.47;;
36817;SDS011;22761;51.542;16.450;2022-11-14T06:04:04;37.70;;;24.70;;
36817;SDS011;22761;51.542;16.450;2022-11-14T06:06:50;44.10;;;26.00;;
36817;SDS011;22761;51.542;16.450;2022-11-14T06:09:35;44.13;;;25.47;;
36817;SDS011;22761;51.542;16.450;2022-11-14T06:12:20;40.97;;;26.07;;
36817;SDS011;22761;51.542;16.450;2022-11-14T06:15:06;39.67;;;25.43;;
36817;SDS011;22761;51.542;16.450;2022-11-14T06:17:52;40.97;;;26.93;;
36817;SDS011;22761;51.542;16.450;2022-11-14T06:20:38;45.17;;;26.27;;
36817;SDS011;22761;51.542;16.450;2022-11-14T06:23:23;40.27;;;26.13;;
36817;SDS011;22761;51.542;16.450;2022-11-14T06:26:30;43.83;;;27.00;;
36817;SDS011;22761;51.542;16.450;2022-11-14T06:29:08;40.53;;;26.70;;
36817;SDS011;22761;51.542;16.450;2022-11-14T06:31:53;42.77;;;26.57;;
36817;SDS011;22761;51.542;16.450;2022-11-14T06:34:39;43.83;;;26.73;;
36817;SDS011;22761;51.542;16.450;2022-11-14T06:37:24;42.40;;;26.10;;
36817;SDS011;22761;51.542;16.450;2022-11-14T06:40:10;42.50;;;26.83;;
36817;SDS011;22761;51.542;16.450;2022-11-14T06:42:55;42.57;;;26.63;;
36817;SDS011;22761;51.542;16.450;2022-11-14T06:45:40;40.00;;;25.90;;
36817;SDS011;22761;51.542;16.450;2022-11-14T06:48:26;44.83;;;27.63;;
36817;SDS011;22761;51.542;16.450;2022-11-14T06:51:12;40.70;;;25.80;;
36817;SDS011;22761;51.542;16.450;2022-11-14T06:53:58;40.97;;;25.97;;
36817;SDS011;22761;51.542;16.450;2022-11-14T06:56:44;43.63;;;26.97;;
36817;SDS011;22761;51.542;16.450;2022-11-14T06:59:29;44.03;;;26.17;;
36817;SDS011;22761;51.542;16.450;2022-11-14T07:02:15;42.27;;;27.30;;
36817;SDS011;22761;51.542;16.450;2022-11-14T07:05:00;43.57;;;26.03;;
36817;SDS011;22761;51.542;16.450;2022-11-14T07:07:45;42.37;;;25.23;;
36817;SDS011;22761;51.542;16.450;2022-11-14T07:10:31;42.90;;;25.17;;
36817;SDS011;22761;51.542;16.450;2022-11-14T07:13:16;40.00;;;24.33;;
36817;SDS011;22761;51.542;16.450;2022-11-14T07:16:02;42.27;;;25.77;;
36817;SDS011;22761;51.542;16.450;2022-11-14T07:18:48;43.83;;;25.87;;
36817;SDS011;22761;51.542;16.450;2022-11-14T07:21:34;41.17;;;24.90;;
36817;SDS011;22761;51.542;16.450;2022-11-14T07:24:19;39.60;;;24.70;;
36817;SDS011;22761;51.542;16.450;2022-11-14T07:27:06;38.67;;;23.63;;
36817;SDS011;22761;51.542;16.450;2022-11-14T07:29:53;38.90;;;24.63;;
36817;SDS011;22761;51.542;16.450;2022-11-14T07:32:39;39.50;;;25.03;;
36817;SDS011;22761;51.542;16.450;2022-11-14T07:35:25;40.53;;;24.07;;
36817;SDS011;22761;51.542;16.450;2022-11-14T07:38:10;40.53;;;24.70;;
36817;SDS011;22761;51.542;16.450;2022-11-14T07:40:56;38.93;;;23.50;;
36817;SDS011;22761;51.542;16.450;2022-11-14T07:43:44;41.00;;;24.07;;
36817;SDS011;22761;51.542;16.450;2022-11-14T07:46:30;43.97;;;24.30;;
36817;SDS011;22761;51.542;16.450;2022-11-14T07:49:15;40.53;;;24.10;;
36817;SDS011;22761;51.542;16.450;2022-11-14T07:52:00;40.43;;;23.93;;
36817;SDS011;22761;51.542;16.450;2022-11-14T07:54:46;38.33;;;22.97;;
36817;SDS011;22761;51.542;16.450;2022-11-14T07:57:31;41.40;;;25.00;;
36817;SDS011;22761;51.542;16.450;2022-11-14T08:00:17;45.00;;;24.50;;
36817;SDS011;22761;51.542;16.450;2022-11-14T08:03:05;38.27;;;23.00;;
36817;SDS011;22761;51.542;16.450;2022-11-14T08:08:46;42.87;;;24.83;;
36817;SDS011;22761;51.542;16.450;2022-11-14T08:11:32;42.53;;;25.50;;
36817;SDS011;22761;51.542;16.450;2022-11-14T08:14:32;41.98;;;24.98;;
36817;SDS011;22761;51.542;16.450;2022-11-14T08:17:19;43.30;;;25.03;;
36817;SDS011;22761;51.542;16.450;2022-11-14T08:20:06;43.57;;;26.17;;
36817;SDS011;22761;51.542;16.450;2022-11-14T08:22:53;43.07;;;24.90;;
36817;SDS011;22761;51.542;16.450;2022-11-14T08:25:40;41.37;;;24.73;;
36817;SDS011;22761;51.542;16.450;2022-11-14T08:28:26;44.83;;;25.47;;
36817;SDS011;22761;51.542;16.450;2022-11-14T08:31:11;46.70;;;25.90;;
36817;SDS011;22761;51.542;16.450;2022-11-14T08:33:57;45.70;;;25.73;;
36817;SDS011;22761;51.542;16.450;2022-11-14T08:36:42;43.60;;;25.10;;
36817;SDS011;22761;51.542;16.450;2022-11-14T08:39:28;44.57;;;25.10;;
36817;SDS011;22761;51.542;16.450;2022-11-14T08:42:14;41.50;;;23.83;;
36817;SDS011;22761;51.542;16.450;2022-11-14T08:45:02;44.40;;;25.03;;
36817;SDS011;22761;51.542;16.450;2022-11-14T08:47:51;41.80;;;24.20;;
36817;SDS011;22761;51.542;16.450;2022-11-14T08:50:37;42.67;;;24.33;;
36817;SDS011;22761;51.542;16.450;2022-11-14T08:53:23;40.53;;;25.03;;
36817;SDS011;22761;51.542;16.450;2022-11-14T08:56:09;41.47;;;24.40;;
36817;SDS011;22761;51.542;16.450;2022-11-14T08:58:55;45.20;;;24.63;;
36817;SDS011;22761;51.542;16.450;2022-11-14T09:01:40;44.73;;;25.40;;
36817;SDS011;22761;51.542;16.450;2022-11-14T09:04:26;43.53;;;25.40;;
36817;SDS011;22761;51.542;16.450;2022-11-14T09:07:12;44.50;;;25.43;;
36817;SDS011;22761;51.542;16.450;2022-11-14T09:09:58;48.70;;;26.97;;
36817;SDS011;22761;51.542;16.450;2022-11-14T09:12:43;45.97;;;26.20;;
36817;SDS011;22761;51.542;16.450;2022-11-14T09:15:28;44.00;;;26.07;;
36817;SDS011;22761;51.542;16.450;2022-11-14T09:18:14;43.17;;;24.63;;
36817;SDS011;22761;51.542;16.450;2022-11-14T09:21:04;40.30;;;23.90;;
36817;SDS011;22761;51.542;16.450;2022-11-14T09:23:52;40.97;;;23.80;;
36817;SDS011;22761;51.542;16.450;2022-11-14T09:26:37;42.47;;;24.20;;
36817;SDS011;22761;51.542;16.450;2022-11-14T09:29:23;38.80;;;22.30;;
36817;SDS011;22761;51.542;16.450;2022-11-14T09:32:10;37.40;;;22.73;;
36817;SDS011;22761;51.542;16.450;2022-11-14T09:34:55;35.77;;;22.77;;
36817;SDS011;22761;51.542;16.450;2022-11-14T09:37:41;33.30;;;20.77;;
36817;SDS011;22761;51.542;16.450;2022-11-14T09:40:26;36.53;;;20.93;;
36817;SDS011;22761;51.542;16.450;2022-11-14T09:46:19;33.93;;;22.07;;
36817;SDS011;22761;51.542;16.450;2022-11-14T09:49:09;33.80;;;21.82;;
36817;SDS011;22761;51.542;16.450;2022-11-14T09:52:39;35.27;;;22.77;;
36817;SDS011;22761;51.542;16.450;2022-11-14T09:55:30;33.40;;;21.40;;
36817;SDS011;22761;51.542;16.450;2022-11-14T09:58:18;35.40;;;22.33;;
36817;SDS011;22761;51.542;16.450;2022-11-14T10:01:10;35.87;;;23.03;;
36817;SDS011;22761;51.542;16.450;2022-11-14T10:07:14;34.87;;;23.73;;
36817;SDS011;22761;51.542;16.450;2022-11-14T10:10:12;36.13;;;24.13;;
36817;SDS011;22761;51.542;16.450;2022-11-14T10:16:53;45.15;;;27.58;;
36817;SDS011;22761;51.542;16.450;2022-11-14T10:20:02;34.67;;;23.07;;
36817;SDS011;22761;51.542;16.450;2022-11-14T10:33:31;36.48;;;24.23;;
36817;SDS011;22761;51.542;16.450;2022-11-14T10:39:18;38.60;;;25.75;;
36817;SDS011;22761;51.542;16.450;2022-11-14T10:42:24;32.60;;;23.20;;
36817;SDS011;22761;51.542;16.450;2022-11-14T10:45:21;32.05;;;21.55;;
36817;SDS011;22761;51.542;16.450;2022-11-14T10:57:36;30.88;;;22.25;;
36817;SDS011;22761;51.542;16.450;2022-11-14T11:00:21;33.75;;;22.20;;
36817;SDS011;22761;51.542;16.450;2022-11-14T11:03:07;32.17;;;23.83;;
36817;SDS011;22761;51.542;16.450;2022-11-14T11:05:53;33.58;;;25.25;;
36817;SDS011;22761;51.542;16.450;2022-11-14T11:08:41;32.13;;;23.98;;
36817;SDS011;22761;51.542;16.450;2022-11-14T11:11:57;30.43;;;24.67;;
36817;SDS011;22761;51.542;16.450;2022-11-14T11:14:42;32.05;;;24.92;;
36817;SDS011;22761;51.542;16.450;2022-11-14T11:17:28;31.15;;;24.95;;
36817;SDS011;22761;51.542;16.450;2022-11-14T11:23:18;29.98;;;24.70;;
36817;SDS011;22761;51.542;16.450;2022-11-14T11:26:18;32.23;;;23.57;;
36817;SDS011;22761;51.542;16.450;2022-11-14T11:29:15;30.77;;;24.45;;
36817;SDS011;22761;51.542;16.450;2022-11-14T11:32:03;30.52;;;23.38;;
36817;SDS011;22761;51.542;16.450;2022-11-14T11:34:50;32.55;;;24.27;;
36817;SDS011;22761;51.542;16.450;2022-11-14T11:37:37;28.00;;;20.82;;
36817;SDS011;22761;51.542;16.450;2022-11-14T11:40:37;29.30;;;22.32;;
36817;SDS011;22761;51.542;16.450;2022-11-14T11:46:33;30.15;;;22.67;;
36817;SDS011;22761;51.542;16.450;2022-11-14T11:49:16;29.35;;;23.00;;
36817;SDS011;22761;51.542;16.450;2022-11-14T11:55:29;31.60;;;22.62;;
36817;SDS011;22761;51.542;16.450;2022-11-14T11:58:25;29.40;;;22.60;;
36817;SDS011;22761;51.542;16.450;2022-11-14T12:01:22;31.80;;;22.75;;
36817;SDS011;22761;51.542;16.450;2022-11-14T12:04:09;32.85;;;22.32;;
36817;SDS011;22761;51.542;16.450;2022-11-14T12:07:07;28.75;;;21.10;;
36817;SDS011;22761;51.542;16.450;2022-11-14T12:10:01;28.60;;;22.62;;
36817;SDS011;22761;51.542;16.450;2022-11-14T12:23:02;29.30;;;22.07;;
36817;SDS011;22761;51.542;16.450;2022-11-14T12:29:26;30.40;;;22.48;;
36817;SDS011;22761;51.542;16.450;2022-11-14T12:32:29;28.15;;;22.30;;
36817;SDS011;22761;51.542;16.450;2022-11-14T12:35:31;31.15;;;22.82;;
36817;SDS011;22761;51.542;16.450;2022-11-14T12:38:18;30.62;;;22.62;;
36817;SDS011;22761;51.542;16.450;2022-11-14T12:41:05;30.70;;;23.25;;
36817;SDS011;22761;51.542;16.450;2022-11-14T12:43:52;29.70;;;22.85;;
36817;SDS011;22761;51.542;16.450;2022-11-14T12:49:59;31.87;;;23.47;;
36817;SDS011;22761;51.542;16.450;2022-11-14T12:52:47;32.28;;;24.05;;
36817;SDS011;22761;51.542;16.450;2022-11-14T13:10:55;30.80;;;23.20;;
36817;SDS011;22761;51.542;16.450;2022-11-14T13:13:59;33.55;;;24.15;;
36817;SDS011;22761;51.542;16.450;2022-11-14T13:20:31;31.05;;;23.40;;
36817;SDS011;22761;51.542;16.450;2022-11-14T13:26:45;31.33;;;24.05;;
36817;SDS011;22761;51.542;16.450;2022-11-14T13:35:38;34.23;;;26.00;;
36817;SDS011;22761;51.542;16.450;2022-11-14T13:45:27;35.43;;;25.55;;
36817;SDS011;22761;51.542;16.450;2022-11-14T13:48:26;34.92;;;26.05;;
36817;SDS011;22761;51.542;16.450;2022-11-14T13:51:31;35.88;;;25.27;;
36817;SDS011;22761;51.542;16.450;2022-11-14T13:54:18;36.15;;;25.32;;
36817;SDS011;22761;51.542;16.450;2022-11-14T14:00:16;34.35;;;24.75;;
36817;SDS011;22761;51.542;16.450;2022-11-14T14:06:32;37.83;;;24.87;;
36817;SDS011;22761;51.542;16.450;2022-11-14T14:16:31;37.98;;;26.42;;
36817;SDS011;22761;51.542;16.450;2022-11-14T14:19:29;40.92;;;28.07;;
36817;SDS011;22761;51.542;16.450;2022-11-14T14:22:36;37.80;;;26.00;;
36817;SDS011;22761;51.542;16.450;2022-11-14T14:25:46;38.80;;;26.23;;
36817;SDS011;22761;51.542;16.450;2022-11-14T14:29:00;42.25;;;27.17;;
36817;SDS011;22761;51.542;16.450;2022-11-14T14:32:16;39.08;;;26.17;;
36817;SDS011;22761;51.542;16.450;2022-11-14T14:38:21;39.40;;;26.00;;
36817;SDS011;22761;51.542;16.450;2022-11-14T14:41:10;48.40;;;28.40;;
36817;SDS011;22761;51.542;16.450;2022-11-14T14:43:57;42.15;;;27.70;;
36817;SDS011;22761;51.542;16.450;2022-11-14T14:46:43;41.58;;;28.15;;
36817;SDS011;22761;51.542;16.450;2022-11-14T14:49:29;40.47;;;26.27;;
36817;SDS011;22761;51.542;16.450;2022-11-14T14:55:26;37.77;;;25.30;;
36817;SDS011;22761;51.542;16.450;2022-11-14T15:01:14;48.67;;;27.67;;
36817;SDS011;22761;51.542;16.450;2022-11-14T15:04:21;47.67;;;28.73;;
36817;SDS011;22761;51.542;16.450;2022-11-14T15:07:20;40.90;;;26.33;;
36817;SDS011;22761;51.542;16.450;2022-11-14T15:10:17;43.90;;;27.20;;
36817;SDS011;22761;51.542;16.450;2022-11-14T15:13:02;43.67;;;26.20;;
36817;SDS011;22761;51.542;16.450;2022-11-14T15:15:48;47.20;;;30.17;;
36817;SDS011;22761;51.542;16.450;2022-11-14T15:18:36;53.63;;;32.53;;
36817;SDS011;22761;51.542;16.450;2022-11-14T15:21:25;53.87;;;36.00;;
36817;SDS011;22761;51.542;16.450;2022-11-14T15:27:04;63.02;;;41.08;;
36817;SDS011;22761;51.542;16.450;2022-11-14T15:29:59;54.27;;;36.33;;
36817;SDS011;22761;51.542;16.450;2022-11-14T15:32:55;57.17;;;34.03;;
36817;SDS011;22761;51.542;16.450;2022-11-14T15:35:39;51.07;;;32.90;;
36817;SDS011;22761;51.542;16.450;2022-11-14T15:38:25;46.97;;;31.50;;
36817;SDS011;22761;51.542;16.450;2022-11-14T15:41:19;43.73;;;29.87;;
36817;SDS011;22761;51.542;16.450;2022-11-14T15:44:27;55.07;;;31.10;;
36817;SDS011;22761;51.542;16.450;2022-11-14T15:47:19;63.73;;;34.53;;
36817;SDS011;22761;51.542;16.450;2022-11-14T15:50:21;66.47;;;36.97;;
36817;SDS011;22761;51.542;16.450;2022-11-14T15:53:21;63.43;;;36.97;;
36817;SDS011;22761;51.542;16.450;2022-11-14T15:56:09;53.40;;;31.13;;
36817;SDS011;22761;51.542;16.450;2022-11-14T15:58:56;53.70;;;32.43;;
36817;SDS011;22761;51.542;16.450;2022-11-14T16:01:42;53.47;;;33.20;;
36817;SDS011;22761;51.542;16.450;2022-11-14T16:04:31;52.17;;;32.03;;
36817;SDS011;22761;51.542;16.450;2022-11-14T16:07:18;51.00;;;32.87;;
36817;SDS011;22761;51.542;16.450;2022-11-14T16:10:16;44.87;;;30.83;;
36817;SDS011;22761;51.542;16.450;2022-11-14T16:13:08;46.90;;;30.60;;
36817;SDS011;22761;51.542;16.450;2022-11-14T16:15:55;52.83;;;33.90;;
36817;SDS011;22761;51.542;16.450;2022-11-14T16:18:41;52.10;;;34.23;;
36817;SDS011;22761;51.542;16.450;2022-11-14T16:21:26;52.43;;;32.90;;
36817;SDS011;22761;51.542;16.450;2022-11-14T16:24:18;51.40;;;32.27;;
36817;SDS011;22761;51.542;16.450;2022-11-14T16:27:07;49.47;;;29.50;;
36817;SDS011;22761;51.542;16.450;2022-11-14T16:29:57;46.97;;;29.90;;
36817;SDS011;22761;51.542;16.450;2022-11-14T16:32:43;44.07;;;28.27;;
36817;SDS011;22761;51.542;16.450;2022-11-14T16:35:31;41.00;;;26.43;;
36817;SDS011;22761;51.542;16.450;2022-11-14T16:38:17;36.63;;;23.87;;
36817;SDS011;22761;51.542;16.450;2022-11-14T16:41:12;35.43;;;23.07;;
36817;SDS011;22761;51.542;16.450;2022-11-14T16:43:57;37.42;;;23.47;;
36817;SDS011;22761;51.542;16.450;2022-11-14T16:46:41;38.23;;;24.33;;
36817;SDS011;22761;51.542;16.450;2022-11-14T16:49:28;36.77;;;21.83;;
36817;SDS011;22761;51.542;16.450;2022-11-14T16:52:14;40.37;;;23.93;;
36817;SDS011;22761;51.542;16.450;2022-11-14T16:55:00;58.33;;;31.90;;
36817;SDS011;22761;51.542;16.450;2022-11-14T16:57:45;47.33;;;28.63;;
36817;SDS011;22761;51.542;16.450;2022-11-14T17:00:30;60.80;;;34.70;;
36817;SDS011;22761;51.542;16.450;2022-11-14T17:03:16;55.67;;;31.77;;
36817;SDS011;22761;51.542;16.450;2022-11-14T17:06:06;52.47;;;30.07;;
36817;SDS011;22761;51.542;16.450;2022-11-14T17:08:57;49.60;;;30.50;;
36817;SDS011;22761;51.542;16.450;2022-11-14T17:11:43;56.37;;;34.13;;
36817;SDS011;22761;51.542;16.450;2022-11-14T17:14:28;74.83;;;40.53;;
36817;SDS011;22761;51.542;16.450;2022-11-14T17:17:15;74.90;;;43.17;;
36817;SDS011;22761;51.542;16.450;2022-11-14T17:20:03;77.70;;;44.00;;
36817;SDS011;22761;51.542;16.450;2022-11-14T17:22:51;74.70;;;43.47;;
36817;SDS011;22761;51.542;16.450;2022-11-14T17:25:37;67.23;;;39.50;;
36817;SDS011;22761;51.542;16.450;2022-11-14T17:28:23;65.87;;;39.70;;
36817;SDS011;22761;51.542;16.450;2022-11-14T17:31:09;68.83;;;41.20;;
36817;SDS011;22761;51.542;16.450;2022-11-14T17:33:55;67.27;;;38.23;;
36817;SDS011;22761;51.542;16.450;2022-11-14T17:36:42;66.30;;;36.57;;
36817;SDS011;22761;51.542;16.450;2022-11-14T17:39:30;63.17;;;37.93;;
36817;SDS011;22761;51.542;16.450;2022-11-14T17:42:17;64.10;;;37.70;;
36817;SDS011;22761;51.542;16.450;2022-11-14T17:45:04;62.30;;;37.13;;
36817;SDS011;22761;51.542;16.450;2022-11-14T17:47:50;59.47;;;35.83;;
36817;SDS011;22761;51.542;16.450;2022-11-14T17:50:39;65.33;;;35.83;;
36817;SDS011;22761;51.542;16.450;2022-11-14T17:53:27;65.30;;;36.53;;
36817;SDS011;22761;51.542;16.450;2022-11-14T17:56:13;59.07;;;33.70;;
36817;SDS011;22761;51.542;16.450;2022-11-14T17:59:02;54.77;;;32.90;;
36817;SDS011;22761;51.542;16.450;2022-11-14T18:01:50;55.60;;;30.97;;
36817;SDS011;22761;51.542;16.450;2022-11-14T18:04:38;51.83;;;28.73;;
36817;SDS011;22761;51.542;16.450;2022-11-14T18:07:25;50.00;;;29.90;;
36817;SDS011;22761;51.542;16.450;2022-11-14T18:10:12;56.10;;;29.17;;
36817;SDS011;22761;51.542;16.450;2022-11-14T18:12:57;51.13;;;29.10;;
36817;SDS011;22761;51.542;16.450;2022-11-14T18:15:45;52.57;;;30.73;;
36817;SDS011;22761;51.542;16.450;2022-11-14T18:18:30;50.27;;;29.73;;
36817;SDS011;22761;51.542;16.450;2022-11-14T18:21:18;46.37;;;28.03;;